createdAt,value
2023-06-21T00:01:41.512Z,98349.72
2023-06-21T00:04:08.872Z,98354.03
2023-06-21T00:06:35.942Z,98361.13
2023-06-21T00:09:06.960Z,98355.28
2023-06-21T00:11:34.244Z,98355.97
2023-06-21T00:14:01.154Z,98353.34
2023-06-21T00:16:27.858Z,98338.47
2023-06-21T00:18:54.571Z,98342.91
2023-06-21T00:21:21.321Z,98345.69
2023-06-21T00:23:48.089Z,98347.59
2023-06-21T00:26:14.757Z,98342.16
2023-06-21T00:28:41.382Z,98350.38
2023-06-21T00:31:09.918Z,98355.50
2023-06-21T00:33:36.856Z,98357.84
2023-06-21T00:36:03.776Z,98350.19
2023-06-21T00:38:36.775Z,98354.22
2023-06-21T00:41:07.066Z,98348.22
2023-06-21T00:43:33.936Z,98354.72
2023-06-21T00:46:01.527Z,98355.00
2023-06-21T00:48:31.193Z,98355.28
2023-06-21T00:50:58.506Z,98350.41
2023-06-21T00:53:30.519Z,98347.34
2023-06-21T00:55:57.658Z,98348.44
2023-06-21T00:58:25.507Z,98345.94
2023-06-21T01:00:52.484Z,98348.25
2023-06-21T01:03:23.121Z,98343.25
2023-06-21T01:06:13.403Z,98344.09
2023-06-21T01:08:40.054Z,98339.91
2023-06-21T01:11:29.268Z,98338.72
2023-06-21T01:14:25.054Z,98336.38
2023-06-21T01:16:54.781Z,98341.78
2023-06-21T01:19:34.367Z,98345.41
2023-06-21T01:22:09.988Z,98337.47
2023-06-21T01:24:47.458Z,98335.66
2023-06-21T01:28:03.733Z,98339.97
2023-06-21T01:30:32.477Z,98331.94
2023-06-21T01:33:00.739Z,98340.13
2023-06-21T01:35:27.643Z,98334.84
2023-06-21T01:37:54.517Z,98342.19
2023-06-21T01:40:21.278Z,98340.09
2023-06-21T01:42:47.928Z,98331.19
2023-06-21T01:45:14.707Z,98334.81
2023-06-21T01:47:44.368Z,98334.81
2023-06-21T01:50:13.235Z,98333.81
2023-06-21T01:52:41.270Z,98331.59
2023-06-21T01:55:09.485Z,98336.28
2023-06-21T01:57:36.805Z,98341.94
2023-06-21T02:00:15.814Z,98343.03
2023-06-21T02:02:46.852Z,98352.44
2023-06-21T02:05:16.660Z,98353.53
2023-06-21T02:07:46.646Z,98356.56
2023-06-21T02:10:15.565Z,98356.81
2023-06-21T02:12:43.392Z,98345.81
2023-06-21T02:15:11.900Z,98346.91
2023-06-21T02:17:38.514Z,98348.97
2023-06-21T02:20:12.695Z,98345.63
2023-06-21T02:22:40.428Z,98343.97
2023-06-21T02:25:07.270Z,98340.63
2023-06-21T02:27:33.936Z,98339.19
2023-06-21T02:30:00.570Z,98344.72
2023-06-21T02:32:27.198Z,98350.56
2023-06-21T02:34:53.950Z,98354.75
2023-06-21T02:37:20.599Z,98357.06
2023-06-21T02:39:49.161Z,98350.69
2023-06-21T02:42:18.277Z,98355.56
2023-06-21T02:44:44.910Z,98359.31
2023-06-21T02:47:11.659Z,98353.53
2023-06-21T02:49:41.245Z,98362.41
2023-06-21T02:52:09.325Z,98371.78
2023-06-21T02:54:38.902Z,98372.75
2023-06-21T02:57:05.998Z,98377.41
2023-06-21T02:59:32.610Z,98381.94
2023-06-21T03:02:00.908Z,98397.31
2023-06-21T03:04:27.520Z,98397.56
2023-06-21T03:06:54.173Z,98394.22
2023-06-21T03:09:20.809Z,98400.56
2023-06-21T03:11:48.555Z,98400.81
2023-06-21T03:14:15.540Z,98394.72
2023-06-21T03:16:42.534Z,98406.31
2023-06-21T03:19:09.515Z,98413.41
2023-06-21T03:21:36.324Z,98410.25
2023-06-21T03:24:04.826Z,98413.03
2023-06-21T03:26:33.747Z,98416.84
2023-06-21T03:29:01.361Z,98416.97
2023-06-21T03:31:28.481Z,98416.03
2023-06-21T03:33:55.597Z,98402.09
2023-06-21T03:36:22.442Z,98399.34
2023-06-21T03:38:49.107Z,98405.06
2023-06-21T03:41:15.820Z,98407.31
2023-06-21T03:43:42.551Z,98409.28
2023-06-21T03:46:12.500Z,98423.38
2023-06-21T03:48:40.164Z,98418.97
2023-06-21T03:51:06.914Z,98426.28
2023-06-21T03:53:33.514Z,98419.47
2023-06-21T03:56:00.152Z,98421.06
2023-06-21T03:58:26.802Z,98414.94
2023-06-21T04:00:53.506Z,98411.47
2023-06-21T04:03:20.309Z,98411.72
2023-06-21T04:05:46.923Z,98410.19
2023-06-21T04:08:13.554Z,98409.22
2023-06-21T04:10:40.198Z,98410.44
2023-06-21T04:13:06.843Z,98416.06
2023-06-21T04:15:34.338Z,98416.06
2023-06-21T04:18:01.088Z,98419.78
2023-06-21T04:20:28.013Z,98423.59
2023-06-21T04:22:54.793Z,98418.59
2023-06-21T04:25:21.548Z,98418.47
2023-06-21T04:27:48.142Z,98419.06
2023-06-21T04:30:15.292Z,98414.03
2023-06-21T04:32:50.936Z,98418.59
2023-06-21T04:35:18.871Z,98414.88
2023-06-21T04:37:47.385Z,98417.53
2023-06-21T04:40:20.072Z,98413.78
2023-06-21T04:42:48.010Z,98413.66
2023-06-21T04:45:16.079Z,98412.00
2023-06-21T04:47:43.682Z,98402.06
2023-06-21T04:52:48.996Z,98394.59
2023-06-21T04:55:24.816Z,98395.63
2023-06-21T04:57:51.943Z,98392.72
2023-06-21T05:00:19.549Z,98381.31
2023-06-21T05:02:48.417Z,98382.09
2023-06-21T05:05:15.431Z,98384.91
2023-06-21T05:07:42.265Z,98385.81
2023-06-21T05:10:10.527Z,98391.72
2023-06-21T05:12:37.491Z,98382.31
2023-06-21T05:15:06.451Z,98377.22
2023-06-21T05:17:33.981Z,98385.59
2023-06-21T05:20:00.731Z,98378.25
2023-06-21T05:22:27.440Z,98389.25
2023-06-21T05:24:54.116Z,98389.69
2023-06-21T05:27:21.001Z,98389.44
2023-06-21T05:29:47.924Z,98398.88
2023-06-21T05:32:14.956Z,98399.16
2023-06-21T05:34:41.655Z,98394.47
2023-06-21T05:37:08.353Z,98396.16
2023-06-21T05:39:37.925Z,98389.75
2023-06-21T05:42:05.005Z,98391.41
2023-06-21T05:44:32.290Z,98394.47
2023-06-21T05:46:59.015Z,98389.78
2023-06-21T05:49:25.703Z,98391.84
2023-06-21T05:51:52.414Z,98391.31
2023-06-21T05:54:19.058Z,98394.75
2023-06-21T05:56:45.925Z,98395.59
2023-06-21T05:59:12.692Z,98403.94
2023-06-21T06:01:42.009Z,98403.03
2023-06-21T06:04:08.920Z,98413.81
2023-06-21T06:06:38.430Z,98418.28
2023-06-21T06:09:05.696Z,98422.00
2023-06-21T06:11:32.441Z,98420.91
2023-06-21T06:13:59.414Z,98420.91
2023-06-21T06:16:26.212Z,98413.97
2023-06-21T06:18:54.476Z,98406.91
2023-06-21T06:21:22.875Z,98413.53
2023-06-21T06:23:51.424Z,98409.94
2023-06-21T06:26:27.725Z,98406.47
2023-06-21T06:28:55.526Z,98408.50
2023-06-21T06:31:24.746Z,98412.59
2023-06-21T06:33:52.041Z,98409.34
2023-06-21T06:36:19.063Z,98409.28
2023-06-21T06:38:52.514Z,98421.03
2023-06-21T06:41:19.314Z,98420.03
2023-06-21T06:43:46.836Z,98434.28
2023-06-21T06:46:13.667Z,98437.75
2023-06-21T06:48:40.274Z,98439.91
2023-06-21T06:51:09.352Z,98450.41
2023-06-21T06:53:35.985Z,98447.38
2023-06-21T06:56:02.626Z,98443.63
2023-06-21T06:58:29.982Z,98453.72
2023-06-21T07:00:56.811Z,98445.69
2023-06-21T07:03:23.765Z,98449.41
2023-06-21T07:05:50.607Z,98444.50
2023-06-21T07:08:17.951Z,98455.03
2023-06-21T07:10:44.769Z,98459.34
2023-06-21T07:13:11.459Z,98453.72
2023-06-21T07:15:40.646Z,98457.06
2023-06-21T07:18:07.384Z,98451.38
2023-06-21T07:20:37.393Z,98455.00
2023-06-21T07:23:04.455Z,98448.50
2023-06-21T07:25:31.552Z,98450.41
2023-06-21T07:27:58.337Z,98449.69
2023-06-21T07:30:25.445Z,98450.44
2023-06-21T07:32:52.551Z,98455.41
2023-06-21T07:35:19.458Z,98455.00
2023-06-21T07:37:47.014Z,98445.56
2023-06-21T07:40:14.435Z,98447.84
2023-06-21T07:42:41.483Z,98443.25
2023-06-21T07:45:09.198Z,98443.00
2023-06-21T07:47:36.229Z,98447.63
2023-06-21T07:50:20.412Z,98449.97
2023-06-21T07:52:48.926Z,98450.47
2023-06-21T07:55:15.648Z,98448.97
2023-06-21T07:57:43.193Z,98452.19
2023-06-21T08:00:13.586Z,98455.97
2023-06-21T08:02:45.784Z,98473.66
2023-06-21T08:05:15.505Z,98467.97
2023-06-21T08:07:42.916Z,98467.97
2023-06-21T08:10:10.515Z,98463.97
2023-06-21T08:12:38.169Z,98474.66
2023-06-21T08:15:06.508Z,98471.44
2023-06-21T08:17:33.541Z,98470.91
2023-06-21T08:20:00.374Z,98470.53
2023-06-21T08:22:27.257Z,98470.53
2023-06-21T08:24:56.696Z,98465.75
2023-06-21T08:27:23.796Z,98468.84
2023-06-21T08:29:52.736Z,98470.97
2023-06-21T08:32:21.137Z,98471.47
2023-06-21T08:34:51.639Z,98477.25
2023-06-21T08:37:23.167Z,98472.28
2023-06-21T08:39:50.603Z,98477.97
2023-06-21T08:42:17.274Z,98478.34
2023-06-21T08:44:43.888Z,98486.94
2023-06-21T08:47:10.682Z,98490.97
2023-06-21T08:49:42.175Z,98490.44
2023-06-21T08:52:12.789Z,98485.66
2023-06-21T08:54:43.948Z,98493.38
2023-06-21T08:57:23.971Z,98493.84
2023-06-21T09:00:20.108Z,98489.28
2023-06-21T09:03:10.390Z,98492.09
2023-06-21T09:05:37.231Z,98485.53
2023-06-21T09:08:05.259Z,98491.78
2023-06-21T09:10:35.385Z,98494.69
2023-06-21T09:13:03.617Z,98496.44
2023-06-21T09:15:31.035Z,98494.13
2023-06-21T09:17:58.141Z,98489.88
2023-06-21T09:20:30.326Z,98490.25
2023-06-21T09:23:00.923Z,98497.81
2023-06-21T09:25:28.705Z,98488.66
2023-06-21T09:27:56.687Z,98488.22
2023-06-21T09:30:38.603Z,98495.75
2023-06-21T09:33:06.699Z,98499.13
2023-06-21T09:35:34.125Z,98494.47
2023-06-21T09:38:01.120Z,98488.69
2023-06-21T09:40:27.801Z,98500.72
2023-06-21T09:42:54.695Z,98509.88
2023-06-21T09:45:21.780Z,98515.25
2023-06-21T09:47:48.523Z,98516.38
2023-06-21T09:50:15.295Z,98527.72
2023-06-21T09:52:44.402Z,98531.22
2023-06-21T09:55:17.680Z,98551.19
2023-06-21T09:57:46.425Z,98546.69
2023-06-21T10:00:14.136Z,98538.25
2023-06-21T10:02:42.266Z,98539.72
2023-06-21T10:05:19.945Z,98544.22
2023-06-21T10:07:47.805Z,98543.06
2023-06-21T10:10:15.075Z,98534.25
2023-06-21T10:12:56.579Z,98534.56
2023-06-21T10:15:24.283Z,98526.59
2023-06-21T10:18:04.719Z,98522.56
2023-06-21T10:20:32.946Z,98520.75
2023-06-21T10:23:02.613Z,98520.56
2023-06-21T10:25:30.540Z,98523.38
2023-06-21T10:28:01.197Z,98517.25
2023-06-21T10:30:29.151Z,98525.25
2023-06-21T10:33:01.455Z,98520.09
2023-06-21T10:35:29.553Z,98518.22
2023-06-21T10:38:09.633Z,98515.91
2023-06-21T10:40:37.445Z,98518.06
2023-06-21T10:43:05.147Z,98516.91
2023-06-21T10:45:34.671Z,98521.22
2023-06-21T10:48:01.986Z,98505.44
2023-06-21T10:50:29.637Z,98514.44
2023-06-21T10:52:59.738Z,98512.75
2023-06-21T10:55:29.259Z,98512.91
2023-06-21T10:57:56.414Z,98505.78
2023-06-21T11:00:25.299Z,98503.59
2023-06-21T11:02:53.526Z,98500.78
2023-06-21T11:05:23.958Z,98500.59
2023-06-21T11:08:07.349Z,98495.28
2023-06-21T11:10:36.694Z,98494.94
2023-06-21T11:13:03.842Z,98492.44
2023-06-21T11:15:32.489Z,98490.63
2023-06-21T11:18:05.261Z,98481.63
2023-06-21T11:20:35.007Z,98487.59
2023-06-21T11:23:14.090Z,98481.44
2023-06-21T11:25:50.186Z,98482.09
2023-06-21T11:28:26.548Z,98485.28
2023-06-21T11:31:05.058Z,98477.97
2023-06-21T11:33:44.514Z,98482.97
2023-06-21T11:36:11.524Z,98481.78
2023-06-21T11:38:38.987Z,98480.78
2023-06-21T11:41:41.733Z,98482.25
2023-06-21T11:44:29.571Z,98482.09
2023-06-21T11:47:17.224Z,98480.75
2023-06-21T11:49:50.018Z,98472.59
2023-06-21T11:52:22.742Z,98473.91
2023-06-21T11:54:49.413Z,98472.72
2023-06-21T11:57:16.107Z,98483.03
2023-06-21T11:59:44.649Z,98473.72
2023-06-21T12:02:24.522Z,98479.53
2023-06-21T12:04:51.745Z,98481.84
2023-06-21T12:07:19.265Z,98485.66
2023-06-21T12:09:54.524Z,98492.50
2023-06-21T12:12:26.754Z,98481.66
2023-06-21T12:14:53.851Z,98486.16
2023-06-21T12:17:20.596Z,98486.16
2023-06-21T12:19:47.330Z,98489.66
2023-06-21T12:22:15.583Z,98491.50
2023-06-21T12:24:45.399Z,98491.13
2023-06-21T12:27:15.545Z,98491.13
2023-06-21T12:29:52.928Z,98482.16
2023-06-21T12:32:21.649Z,98490.81
2023-06-21T12:34:52.270Z,98493.94
2023-06-21T12:37:20.533Z,98485.94
2023-06-21T12:39:54.790Z,98486.44
2023-06-21T12:42:22.059Z,98489.28
2023-06-21T12:44:57.129Z,98483.59
2023-06-21T12:47:23.898Z,98487.56
2023-06-21T12:49:53.275Z,98488.09
2023-06-21T12:52:26.982Z,98487.06
2023-06-21T12:54:55.893Z,98479.75
2023-06-21T12:57:37.460Z,98472.41
2023-06-21T13:00:04.535Z,98481.06
2023-06-21T13:02:31.398Z,98476.06
2023-06-21T13:04:59.259Z,98460.06
2023-06-21T13:07:27.889Z,98458.72
2023-06-21T13:09:54.851Z,98461.03
2023-06-21T13:12:21.548Z,98458.00
2023-06-21T13:14:48.241Z,98459.69
2023-06-21T13:17:17.514Z,98471.00
2023-06-21T13:19:44.766Z,98461.16
2023-06-21T13:22:11.570Z,98460.66
2023-06-21T13:24:38.337Z,98459.63
2023-06-21T13:27:05.141Z,98457.63
2023-06-21T13:29:31.892Z,98449.44
2023-06-21T13:31:58.848Z,98454.13
2023-06-21T13:34:25.632Z,98459.28
2023-06-21T13:36:52.280Z,98458.09
2023-06-21T13:39:19.800Z,98459.38
2023-06-21T13:41:46.491Z,98449.38
2023-06-21T13:44:13.191Z,98450.84
2023-06-21T13:46:39.927Z,98456.66
2023-06-21T13:49:09.340Z,98458.34
2023-06-21T13:51:37.499Z,98455.47
2023-06-21T13:54:04.322Z,98458.81
2023-06-21T13:56:31.005Z,98467.44
2023-06-21T13:58:57.644Z,98462.59
2023-06-21T14:01:24.453Z,98466.75
2023-06-21T14:03:51.446Z,98469.22
2023-06-21T14:06:18.365Z,98470.91
2023-06-21T14:08:47.208Z,98470.03
2023-06-21T14:11:13.997Z,98465.56
2023-06-21T14:13:40.699Z,98463.75
2023-06-21T14:16:07.440Z,98475.06
2023-06-21T14:18:46.313Z,98467.25
2023-06-21T14:21:13.587Z,98465.41
2023-06-21T14:23:40.299Z,98459.88
2023-06-21T14:26:06.971Z,98456.59
2023-06-21T14:28:35.017Z,98449.56
2023-06-21T14:31:02.173Z,98445.06
2023-06-21T14:33:28.953Z,98435.34
2023-06-21T14:35:55.820Z,98440.56
2023-06-21T14:38:22.606Z,98444.22
2023-06-21T14:40:49.345Z,98434.41
2023-06-21T14:43:16.032Z,98438.91
2023-06-21T14:45:42.724Z,98435.34
2023-06-21T14:48:10.349Z,98433.56
2023-06-21T14:50:39.794Z,98434.56
2023-06-21T14:53:07.008Z,98440.06
2023-06-21T14:55:33.613Z,98441.06
2023-06-21T14:58:00.466Z,98437.59
2023-06-21T15:00:27.332Z,98438.75
2023-06-21T15:02:54.330Z,98440.75
2023-06-21T15:05:21.076Z,98439.13
2023-06-21T15:07:47.913Z,98440.13
2023-06-21T15:10:14.636Z,98435.78
2023-06-21T15:12:56.289Z,98436.16
2023-06-21T15:15:27.504Z,98441.50
2023-06-21T15:17:55.721Z,98440.03
2023-06-21T15:20:22.425Z,98433.84
2023-06-21T15:22:49.136Z,98422.53
2023-06-21T15:25:15.881Z,98417.56
2023-06-21T15:27:42.489Z,98431.25
2023-06-21T15:30:09.766Z,98443.09
2023-06-21T15:32:36.483Z,98448.59
2023-06-21T15:35:03.249Z,98441.97
2023-06-21T15:37:29.985Z,98443.97
2023-06-21T15:39:57.538Z,98442.66
2023-06-21T15:42:24.402Z,98464.34
2023-06-21T15:44:51.308Z,98470.22
2023-06-21T15:47:18.061Z,98464.22
2023-06-21T15:49:44.829Z,98468.72
2023-06-21T15:52:11.481Z,98481.75
2023-06-21T15:54:38.246Z,98475.09
2023-06-21T15:57:05.199Z,98473.75
2023-06-21T15:59:31.872Z,98467.13
2023-06-21T16:01:59.290Z,98453.97
2023-06-21T16:04:26.291Z,98441.16
2023-06-21T16:06:53.037Z,98431.22
2023-06-21T16:09:23.398Z,98416.59
2023-06-21T16:11:50.713Z,98416.97
2023-06-21T16:14:17.422Z,98426.13
2023-06-21T16:16:44.077Z,98415.63
2023-06-21T16:19:12.547Z,98394.84
2023-06-21T16:21:39.404Z,98402.00
2023-06-21T16:24:06.342Z,98408.56
2023-06-21T16:26:33.193Z,98418.91
2023-06-21T16:28:59.886Z,98416.41
2023-06-21T16:31:26.641Z,98422.28
2023-06-21T16:33:53.382Z,98413.28
2023-06-21T16:36:21.037Z,98418.78
2023-06-21T16:38:47.672Z,98423.63
2023-06-21T16:41:14.416Z,98424.97
2023-06-21T16:43:41.075Z,98450.91
2023-06-21T16:46:07.878Z,98472.81
2023-06-21T16:48:34.553Z,98492.78
2023-06-21T16:51:01.235Z,98506.09
2023-06-21T16:53:27.981Z,98512.88
2023-06-21T16:55:54.760Z,98514.19
2023-06-21T16:58:21.568Z,98529.78
2023-06-21T17:00:48.244Z,98537.47
2023-06-21T17:03:15.012Z,98549.41
2023-06-21T17:05:42.109Z,98547.06
2023-06-21T17:08:08.964Z,98547.38
2023-06-21T17:10:35.656Z,98539.88
2023-06-21T17:13:02.468Z,98591.53
2023-06-21T17:15:32.700Z,98690.41
2023-06-21T17:17:59.418Z,98669.56
2023-06-21T17:20:26.145Z,98702.78
2023-06-21T17:22:52.797Z,98705.34
2023-06-21T17:25:19.480Z,98741.88
2023-06-21T17:27:46.156Z,98766.09
2023-06-21T17:30:24.694Z,98804.56
2023-06-21T17:32:54.024Z,98811.94
2023-06-21T17:35:20.750Z,98797.97
2023-06-21T17:37:49.642Z,98795.06
2023-06-21T17:40:16.464Z,98791.97
2023-06-21T17:42:43.112Z,98789.53
2023-06-21T17:45:10.209Z,98765.38
2023-06-21T17:47:37.034Z,98772.66
2023-06-21T17:50:04.114Z,98745.25
2023-06-21T17:52:32.142Z,98720.72
2023-06-21T17:54:58.816Z,98713.19
2023-06-21T17:57:25.878Z,98712.63
2023-06-21T17:59:52.620Z,98716.03
2023-06-21T18:02:20.232Z,98696.69
2023-06-21T18:04:47.583Z,98694.41
2023-06-21T18:07:15.799Z,98672.66
2023-06-21T18:09:42.405Z,98673.28
2023-06-21T18:12:10.934Z,98687.69
2023-06-21T18:14:37.656Z,98688.09
2023-06-21T18:17:04.593Z,98686.59
2023-06-21T18:19:31.295Z,98685.06
2023-06-21T18:22:11.465Z,98674.72
2023-06-21T18:24:39.676Z,98662.63
2023-06-21T18:27:08.144Z,98659.22
2023-06-21T18:29:34.901Z,98646.66
2023-06-21T18:32:02.200Z,98629.28
2023-06-21T18:34:28.867Z,98626.63
2023-06-21T18:36:55.450Z,98632.25
2023-06-21T18:39:22.137Z,98628.63
2023-06-21T18:41:48.981Z,98635.56
2023-06-21T18:44:15.828Z,98641.38
2023-06-21T18:46:42.491Z,98637.34
2023-06-21T18:49:09.156Z,98633.50
2023-06-21T18:51:35.891Z,98627.53
2023-06-21T18:54:02.679Z,98633.16
2023-06-21T18:56:29.378Z,98614.47
2023-06-21T18:58:56.218Z,98598.31
2023-06-21T19:01:26.181Z,98597.78
2023-06-21T19:03:57.481Z,98597.31
2023-06-21T19:06:25.116Z,98604.25
2023-06-21T19:08:51.758Z,98610.38
2023-06-21T19:11:18.402Z,98611.69
2023-06-21T19:13:47.871Z,98605.69
2023-06-21T19:16:15.010Z,98603.47
2023-06-21T19:18:42.530Z,98607.53
2023-06-21T19:21:09.241Z,98614.63
2023-06-21T19:23:36.071Z,98617.94
2023-06-21T19:26:02.698Z,98614.88
2023-06-21T19:28:29.562Z,98624.56
2023-06-21T19:30:56.472Z,98634.88
2023-06-21T19:33:23.329Z,98650.34
2023-06-21T19:35:49.939Z,98641.84
2023-06-21T19:38:16.535Z,98657.91
2023-06-21T19:40:44.853Z,98673.00
2023-06-21T19:43:12.485Z,98688.78
2023-06-21T19:45:39.463Z,98688.16
2023-06-21T19:48:07.789Z,98706.38
2023-06-21T19:50:34.665Z,98698.50
2023-06-21T19:53:01.589Z,98694.66
2023-06-21T19:55:28.274Z,98691.06
2023-06-21T19:57:54.966Z,98686.63
2023-06-21T20:00:24.829Z,98686.28
2023-06-21T20:02:51.928Z,98692.03
2023-06-21T20:05:21.611Z,98674.63
2023-06-21T20:07:48.358Z,98674.88
2023-06-21T20:10:14.983Z,98675.00
2023-06-21T20:12:41.657Z,98682.91
2023-06-21T20:15:08.922Z,98680.41
2023-06-21T20:17:38.094Z,98662.81
2023-06-21T20:20:07.946Z,98664.34
2023-06-21T20:22:34.596Z,98664.34
2023-06-21T20:25:02.048Z,98652.84
2023-06-21T20:27:28.757Z,98657.16
2023-06-21T20:29:55.350Z,98661.38
2023-06-21T20:32:22.136Z,98682.66
2023-06-21T20:34:48.822Z,98697.06
2023-06-21T20:37:15.446Z,98707.47
2023-06-21T20:39:42.239Z,98761.03
2023-06-21T20:42:09.178Z,98771.31
2023-06-21T20:44:37.963Z,98774.94
2023-06-21T20:47:06.706Z,98798.53
2023-06-21T20:49:33.758Z,98791.47
2023-06-21T20:52:00.662Z,98773.97
2023-06-21T20:54:27.354Z,98731.44
2023-06-21T20:56:54.017Z,98732.03
2023-06-21T20:59:21.144Z,98747.50
2023-06-21T21:01:52.054Z,98720.78
2023-06-21T21:04:19.204Z,98711.53
2023-06-21T21:06:46.401Z,98748.38
2023-06-21T21:09:13.331Z,98821.78
2023-06-21T21:11:40.417Z,98833.84
2023-06-21T21:14:07.055Z,98799.94
2023-06-21T21:16:33.704Z,98758.25
2023-06-21T21:19:00.324Z,98765.66
2023-06-21T21:21:27.229Z,98779.78
2023-06-21T21:23:55.182Z,98764.09
2023-06-21T21:26:21.884Z,98760.75
2023-06-21T21:28:48.554Z,98751.63
2023-06-21T21:31:15.268Z,98752.81
2023-06-21T21:33:42.142Z,98748.47
2023-06-21T21:36:08.873Z,98736.53
2023-06-21T21:38:35.675Z,98730.03
2023-06-21T21:41:02.353Z,98722.47
2023-06-21T21:43:29.043Z,98721.50
2023-06-21T21:45:55.711Z,98720.34
2023-06-21T21:48:22.385Z,98716.97
2023-06-21T21:50:49.101Z,98730.88
2023-06-21T21:53:15.778Z,98732.81
2023-06-21T21:55:42.779Z,98718.47
2023-06-21T21:58:10.604Z,98723.28
2023-06-21T22:00:37.728Z,98730.22
2023-06-21T22:03:04.608Z,98715.13
2023-06-21T22:05:31.394Z,98698.53
2023-06-21T22:07:58.077Z,98697.66
2023-06-21T22:10:36.534Z,98706.53
2023-06-21T22:13:05.333Z,98692.75
2023-06-21T22:15:32.171Z,98680.88
2023-06-21T22:17:58.978Z,98669.38
2023-06-21T22:20:25.752Z,98672.13
2023-06-21T22:22:52.565Z,98682.19
2023-06-21T22:25:19.242Z,98679.47
2023-06-21T22:27:45.964Z,98684.59
2023-06-21T22:30:12.703Z,98674.19
2023-06-21T22:32:39.451Z,98667.72
2023-06-21T22:35:06.692Z,98664.09
2023-06-21T22:37:37.324Z,98650.72
2023-06-21T22:40:06.237Z,98630.38
2023-06-21T22:42:33.138Z,98634.72
2023-06-21T22:44:59.790Z,98606.69
2023-06-21T22:47:26.429Z,98614.59
2023-06-21T22:49:56.815Z,98615.19
2023-06-21T22:52:24.842Z,98614.09
2023-06-21T22:54:51.642Z,98613.41
2023-06-21T22:57:18.390Z,98611.72
2023-06-21T22:59:44.975Z,98620.47
2023-06-21T23:02:11.596Z,98615.19
2023-06-21T23:04:38.412Z,98617.47
2023-06-21T23:07:05.366Z,98624.44
2023-06-21T23:09:33.354Z,98630.31
2023-06-21T23:11:59.961Z,98637.22
2023-06-21T23:14:26.636Z,98622.72
2023-06-21T23:16:53.278Z,98636.63
2023-06-21T23:19:20.202Z,98647.28
2023-06-21T23:21:47.835Z,98650.25
2023-06-21T23:24:14.749Z,98659.22
2023-06-21T23:26:42.427Z,98647.88
2023-06-21T23:29:12.251Z,98651.78
2023-06-21T23:31:39.984Z,98651.66
2023-06-21T23:34:07.089Z,98649.47
2023-06-21T23:36:34.793Z,98643.25
2023-06-21T23:39:04.938Z,98641.56
2023-06-21T23:41:31.877Z,98661.69
2023-06-21T23:44:06.236Z,98653.91
2023-06-21T23:46:33.573Z,98670.94
2023-06-21T23:49:03.076Z,98668.22
2023-06-21T23:51:33.611Z,98678.34
2023-06-21T23:54:00.355Z,98670.69
2023-06-21T23:56:27.838Z,98668.06
2023-06-21T23:58:54.856Z,98677.34
